Aviation Digital Data Service (ADDS)

Output produced by METARs form (0053 UTC 19 August 2019)
found at http://www.aviationweather.gov/metar/data/
 
METAR text: KLAN 182353Z 27007KT 10SM CLR 26/19 A2982 RMK AO2 WSHFT 2248 SLP091 60000 T02560189 10289 20239 50001
Conditions at: KLAN (LANSING , MI, US) observed 2353 UTC 18 August 2019
Temperature: 25.6°C (78°F)
Dewpoint: 18.9°C (66°F) [RH = 67%]
Pressure (altimeter): 29.82 inches Hg (1009.9 mb)
[Sea-level pressure: 1009.1 mb]
Winds: from the W (270 degrees) at 8 MPH (7 knots; 3.6 m/s)
Visibility: 10 or more miles (16+ km)
Ceiling: at least 12,000 feet AGL
Clouds: sky clear below 12,000 feet AGL
Weather: no significant weather observed at this time

METAR text: KLAN 182302Z 32011G19KT 10SM SCT034 BKN044 BKN055 25/18 A2982 RMK AO2 WSHFT 2248 LTG DSNT SE AND S T02500183
Conditions at: KLAN (LANSING , MI, US) observed 2302 UTC 18 August 2019
Temperature: 25.0°C (77°F)
Dewpoint: 18.3°C (65°F) [RH = 66%]
Pressure (altimeter): 29.82 inches Hg (1009.9 mb)
Winds: from the NW (320 degrees) at 13 MPH (11 knots; 5.7 m/s)
gusting to 22 MPH (19 knots; 9.8 m/s)
Visibility: 10 or more miles (16+ km)
Ceiling: 4400 feet AGL
Clouds: scattered clouds at 3400 feet AGL
broken clouds at 4400 feet AGL
broken clouds at 5500 feet AGL
Weather: no significant weather observed at this time

METAR text: KLAN 182253Z 25011KT 10SM VCTS FEW043 SCT055 BKN090 27/20 A2982 RMK AO2 LTG DSNT N AND S SLP094 T02670200
Conditions at: KLAN (LANSING , MI, US) observed 2253 UTC 18 August 2019
Temperature: 26.7°C (80°F)
Dewpoint: 20.0°C (68°F) [RH = 67%]
Pressure (altimeter): 29.82 inches Hg (1009.9 mb)
[Sea-level pressure: 1009.4 mb]
Winds: from the WSW (250 degrees) at 13 MPH (11 knots; 5.7 m/s)
Visibility: 10 or more miles (16+ km)
Ceiling: 9000 feet AGL
Clouds: few clouds at 4300 feet AGL
scattered clouds at 5500 feet AGL
broken clouds at 9000 feet AGL
Weather: VCTS  (thunderstorm in vicinity)

METAR text: KLAN 182246Z 25012KT 10SM VCTS FEW037 SCT070 BKN110 27/20 A2982 RMK AO2 LTG DSNT N AND S T02720200
Conditions at: KLAN (LANSING , MI, US) observed 2246 UTC 18 August 2019
Temperature: 27.2°C (81°F)
Dewpoint: 20.0°C (68°F) [RH = 65%]
Pressure (altimeter): 29.82 inches Hg (1009.9 mb)
Winds: from the WSW (250 degrees) at 14 MPH (12 knots; 6.2 m/s)
Visibility: 10 or more miles (16+ km)
Ceiling: 11000 feet AGL
Clouds: few clouds at 3700 feet AGL
scattered clouds at 7000 feet AGL
broken clouds at 11000 feet AGL
Weather: VCTS  (thunderstorm in vicinity)

METAR text: KLAN 182153Z 23015G21KT 10SM FEW080 FEW095 28/19 A2984 RMK AO2 PK WND 22027/2117 SLP099 T02830194
Conditions at: KLAN (LANSING , MI, US) observed 2153 UTC 18 August 2019
Temperature: 28.3°C (83°F)
Dewpoint: 19.4°C (67°F) [RH = 59%]
Pressure (altimeter): 29.84 inches Hg (1010.6 mb)
[Sea-level pressure: 1009.9 mb]
Winds: from the SW (230 degrees) at 17 MPH (15 knots; 7.7 m/s)
gusting to 24 MPH (21 knots; 10.8 m/s)
Visibility: 10 or more miles (16+ km)
Ceiling: at least 12,000 feet AGL
Clouds: few clouds at 8000 feet AGL
few clouds at 9500 feet AGL
Weather: no significant weather observed at this time

METAR text: KLAN 182053Z 18012KT 10SM CLR 28/19 A2981 RMK AO2 PK WND 18026/2004 SLP089 60000 T02780194 55026
Conditions at: KLAN (LANSING , MI, US) observed 2053 UTC 18 August 2019
Temperature: 27.8°C (82°F)
Dewpoint: 19.4°C (67°F) [RH = 60%]
Pressure (altimeter): 29.81 inches Hg (1009.6 mb)
[Sea-level pressure: 1008.9 mb]
Winds: from the S (180 degrees) at 14 MPH (12 knots; 6.2 m/s)
Visibility: 10 or more miles (16+ km)
Ceiling: at least 12,000 feet AGL
Clouds: sky clear below 12,000 feet AGL
Weather: no significant weather observed at this time

METAR text: KLAN 181953Z 18019G26KT 10SM CLR 28/18 A2979 RMK AO2 PK WND 17026/1952 SLP081 T02830183
Conditions at: KLAN (LANSING , MI, US) observed 1953 UTC 18 August 2019
Temperature: 28.3°C (83°F)
Dewpoint: 18.3°C (65°F) [RH = 55%]
Pressure (altimeter): 29.79 inches Hg (1008.9 mb)
[Sea-level pressure: 1008.1 mb]
Winds: from the S (180 degrees) at 22 MPH (19 knots; 9.8 m/s)
gusting to 30 MPH (26 knots; 13.4 m/s)
Visibility: 10 or more miles (16+ km)
Ceiling: at least 12,000 feet AGL
Clouds: sky clear below 12,000 feet AGL
Weather: no significant weather observed at this time

METAR text: KLAN 181853Z 18009KT 10SM CLR 26/19 A2981 RMK AO2 RAE21 SLP091 P0000 T02610189
Conditions at: KLAN (LANSING , MI, US) observed 1853 UTC 18 August 2019
Temperature: 26.1°C (79°F)
Dewpoint: 18.9°C (66°F) [RH = 65%]
Pressure (altimeter): 29.81 inches Hg (1009.6 mb)
[Sea-level pressure: 1009.1 mb]
Winds: from the S (180 degrees) at 10 MPH (9 knots; 4.6 m/s)
Visibility: 10 or more miles (16+ km)
Ceiling: at least 12,000 feet AGL
Clouds: sky clear below 12,000 feet AGL
Weather: no significant weather observed at this time

METAR text: KLAN 181753Z 21009KT 10SM -RA BKN110 25/19 A2989 RMK AO2 PK WND 26026/1658 RAB1657E14B38 PRESFR SLP117 P0000 60002 T02500194 10278 20206 50012
Conditions at: KLAN (LANSING , MI, US) observed 1753 UTC 18 August 2019
Temperature: 25.0°C (77°F)
Dewpoint: 19.4°C (67°F) [RH = 71%]
Pressure (altimeter): 29.89 inches Hg (1012.3 mb)
[Sea-level pressure: 1011.7 mb]
Winds: from the SSW (210 degrees) at 10 MPH (9 knots; 4.6 m/s)
Visibility: 10 or more miles (16+ km)
Ceiling: 11000 feet AGL
Clouds: broken clouds at 11000 feet AGL
Weather: -RA  (light rain)

METAR text: KLAN 181653Z 27015G22KT 10SM FEW029 SCT100 BKN120 24/18 A2994 RMK AO2 PK WND 24034/1633 LTG DSNT E RAB1555E40 SLP133 P0002 T02440183
Conditions at: KLAN (LANSING , MI, US) observed 1653 UTC 18 August 2019
Temperature: 24.4°C (76°F)
Dewpoint: 18.3°C (65°F) [RH = 69%]
Pressure (altimeter): 29.94 inches Hg (1014.0 mb)
[Sea-level pressure: 1013.3 mb]
Winds: from the W (270 degrees) at 17 MPH (15 knots; 7.7 m/s)
gusting to 25 MPH (22 knots; 11.3 m/s)
Visibility: 10 or more miles (16+ km)
Ceiling: 12000 feet AGL
Clouds: few clouds at 2900 feet AGL
scattered clouds at 10000 feet AGL
broken clouds at 12000 feet AGL
Weather: no significant weather observed at this time

METAR text: KLAN 181553Z 23010G19KT 7SM FEW027 SCT037 BKN048 27/20 A2989 RMK AO2 LTG DSNT S SLP116 T02670200
Conditions at: KLAN (LANSING , MI, US) observed 1553 UTC 18 August 2019
Temperature: 26.7°C (80°F)
Dewpoint: 20.0°C (68°F) [RH = 67%]
Pressure (altimeter): 29.89 inches Hg (1012.3 mb)
[Sea-level pressure: 1011.6 mb]
Winds: from the SW (230 degrees) at 12 MPH (10 knots; 5.1 m/s)
gusting to 22 MPH (19 knots; 9.8 m/s)
Visibility: 7 miles (11 km)
Ceiling: 4800 feet AGL
Clouds: few clouds at 2700 feet AGL
scattered clouds at 3700 feet AGL
broken clouds at 4800 feet AGL
Weather: no significant weather observed at this time

METAR text: KLAN 181453Z 17010KT 10SM FEW031 26/19 A2986 RMK AO2 SLP105 T02610194 56015
Conditions at: KLAN (LANSING , MI, US) observed 1453 UTC 18 August 2019
Temperature: 26.1°C (79°F)
Dewpoint: 19.4°C (67°F) [RH = 67%]
Pressure (altimeter): 29.86 inches Hg (1011.3 mb)
[Sea-level pressure: 1010.5 mb]
Winds: from the S (170 degrees) at 12 MPH (10 knots; 5.1 m/s)
Visibility: 10 or more miles (16+ km)
Ceiling: at least 12,000 feet AGL
Clouds: few clouds at 3100 feet AGL
Weather: no significant weather observed at this time

METAR text: KLAN 181353Z 18011KT 10SM CLR 25/19 A2988 RMK AO2 SLP114 T02500194
Conditions at: KLAN (LANSING , MI, US) observed 1353 UTC 18 August 2019
Temperature: 25.0°C (77°F)
Dewpoint: 19.4°C (67°F) [RH = 71%]
Pressure (altimeter): 29.88 inches Hg (1011.9 mb)
[Sea-level pressure: 1011.4 mb]
Winds: from the S (180 degrees) at 13 MPH (11 knots; 5.7 m/s)
Visibility: 10 or more miles (16+ km)
Ceiling: at least 12,000 feet AGL
Clouds: sky clear below 12,000 feet AGL
Weather: no significant weather observed at this time

METAR text: KLAN 181253Z 15007KT 8SM FEW004 23/20 A2987 RMK AO2 SLP110 T02280200
Conditions at: KLAN (LANSING , MI, US) observed 1253 UTC 18 August 2019
Temperature: 22.8°C (73°F)
Dewpoint: 20.0°C (68°F) [RH = 84%]
Pressure (altimeter): 29.87 inches Hg (1011.6 mb)
[Sea-level pressure: 1011.0 mb]
Winds: from the SSE (150 degrees) at 8 MPH (7 knots; 3.6 m/s)
Visibility: 8 miles (13 km)
Ceiling: at least 12,000 feet AGL
Clouds: few clouds at 400 feet AGL
Weather: no significant weather observed at this time

METAR text: KLAN 181244Z 15005KT 6SM BR SCT004 22/20 A2987 RMK AO2 T02170200
Conditions at: KLAN (LANSING , MI, US) observed 1244 UTC 18 August 2019
Temperature: 21.7°C (71°F)
Dewpoint: 20.0°C (68°F) [RH = 90%]
Pressure (altimeter): 29.87 inches Hg (1011.6 mb)
Winds: from the SSE (150 degrees) at 6 MPH (5 knots; 2.6 m/s)
Visibility: 6 miles (10 km)
Ceiling: at least 12,000 feet AGL
Clouds: scattered clouds at 400 feet AGL
Weather: BR  (mist)

METAR text: KLAN 181217Z 21006KT 3SM BR OVC003 21/19 A2990 RMK AO2 T02060194
Conditions at: KLAN (LANSING , MI, US) observed 1217 UTC 18 August 2019
Temperature: 20.6°C (69°F)
Dewpoint: 19.4°C (67°F) [RH = 93%]
Pressure (altimeter): 29.90 inches Hg (1012.6 mb)
Winds: from the SSW (210 degrees) at 7 MPH (6 knots; 3.1 m/s)
Visibility: 3 miles ( 5 km)
Ceiling: 300 feet AGL
Clouds: overcast cloud deck at 300 feet AGL
Weather: BR  (mist)

METAR text: KLAN 181202Z 18005KT 2 1/2SM BR BKN003 21/19 A2990 RMK AO2 T02060194
Conditions at: KLAN (LANSING , MI, US) observed 1202 UTC 18 August 2019
Temperature: 20.6°C (69°F)
Dewpoint: 19.4°C (67°F) [RH = 93%]
Pressure (altimeter): 29.90 inches Hg (1012.6 mb)
Winds: from the S (180 degrees) at 6 MPH (5 knots; 2.6 m/s)
Visibility: 2.50 miles (4.02 km)
Ceiling: 300 feet AGL
Clouds: broken clouds at 300 feet AGL
Weather: BR  (mist)

METAR text: KLAN 181153Z 20005KT 3SM BR BKN003 21/19 A2990 RMK AO2 SLP120 T02060194 10222 20200 53004
Conditions at: KLAN (LANSING , MI, US) observed 1153 UTC 18 August 2019
Temperature: 20.6°C (69°F)
Dewpoint: 19.4°C (67°F) [RH = 93%]
Pressure (altimeter): 29.90 inches Hg (1012.6 mb)
[Sea-level pressure: 1012.0 mb]
Winds: from the SSW (200 degrees) at 6 MPH (5 knots; 2.6 m/s)
Visibility: 3 miles ( 5 km)
Ceiling: 300 feet AGL
Clouds: broken clouds at 300 feet AGL
Weather: BR  (mist)

METAR text: KLAN 181149Z 20005KT 3SM BR SCT003 21/19 A2990 RMK AO2
Conditions at: KLAN (LANSING , MI, US) observed 1149 UTC 18 August 2019
Temperature: 21.0°C (70°F)
Dewpoint: 19.0°C (66°F) [RH = 88%]
Pressure (altimeter): 29.90 inches Hg (1012.6 mb)
Winds: from the SSW (200 degrees) at 6 MPH (5 knots; 2.6 m/s)
Visibility: 3 miles ( 5 km)
Ceiling: at least 12,000 feet AGL
Clouds: scattered clouds at 300 feet AGL
Weather: BR  (mist)

METAR text: KLAN 181053Z 17006KT 4SM BR CLR 20/19 A2988 RMK AO2 SLP113 T02000189
Conditions at: KLAN (LANSING , MI, US) observed 1053 UTC 18 August 2019
Temperature: 20.0°C (68°F)
Dewpoint: 18.9°C (66°F) [RH = 93%]
Pressure (altimeter): 29.88 inches Hg (1011.9 mb)
[Sea-level pressure: 1011.3 mb]
Winds: from the S (170 degrees) at 7 MPH (6 knots; 3.1 m/s)
Visibility: 4 miles ( 6 km)
Ceiling: at least 12,000 feet AGL
Clouds: sky clear below 12,000 feet AGL
Weather: BR  (mist)

METAR text: KLAN 180953Z 19004KT 5SM BR CLR 20/19 A2989 RMK AO2 SLP115 T02000189
Conditions at: KLAN (LANSING , MI, US) observed 0953 UTC 18 August 2019
Temperature: 20.0°C (68°F)
Dewpoint: 18.9°C (66°F) [RH = 93%]
Pressure (altimeter): 29.89 inches Hg (1012.3 mb)
[Sea-level pressure: 1011.5 mb]
Winds: from the S (190 degrees) at 5 MPH (4 knots; 2.1 m/s)
Visibility: 5 miles ( 8 km)
Ceiling: at least 12,000 feet AGL
Clouds: sky clear below 12,000 feet AGL
Weather: BR  (mist)

METAR text: KLAN 180853Z 18004KT 7SM SCT008 21/19 A2990 RMK AO2 SLP117 T02110194 58007
Conditions at: KLAN (LANSING , MI, US) observed 0853 UTC 18 August 2019
Temperature: 21.1°C (70°F)
Dewpoint: 19.4°C (67°F) [RH = 90%]
Pressure (altimeter): 29.90 inches Hg (1012.6 mb)
[Sea-level pressure: 1011.7 mb]
Winds: from the S (180 degrees) at 5 MPH (4 knots; 2.1 m/s)
Visibility: 7 miles (11 km)
Ceiling: at least 12,000 feet AGL
Clouds: scattered clouds at 800 feet AGL
Weather: no significant weather observed at this time

METAR text: KLAN 180837Z 18004KT 8SM SCT008 21/19 A2990 RMK AO2 T02060194
Conditions at: KLAN (LANSING , MI, US) observed 0837 UTC 18 August 2019
Temperature: 20.6°C (69°F)
Dewpoint: 19.4°C (67°F) [RH = 93%]
Pressure (altimeter): 29.90 inches Hg (1012.6 mb)
Winds: from the S (180 degrees) at 5 MPH (4 knots; 2.1 m/s)
Visibility: 8 miles (13 km)
Ceiling: at least 12,000 feet AGL
Clouds: scattered clouds at 800 feet AGL
Weather: no significant weather observed at this time

METAR text: KLAN 180814Z 00000KT 7SM FEW016 21/19 A2991 RMK AO2 T02060194
Conditions at: KLAN (LANSING , MI, US) observed 0814 UTC 18 August 2019
Temperature: 20.6°C (69°F)
Dewpoint: 19.4°C (67°F) [RH = 93%]
Pressure (altimeter): 29.91 inches Hg (1013.0 mb)
Winds: calm
Visibility: 7 miles (11 km)
Ceiling: at least 12,000 feet AGL
Clouds: few clouds at 1600 feet AGL
Weather: no significant weather observed at this time

METAR text: KLAN 180806Z 00000KT 8SM BKN016 21/19 A2990 RMK AO2 T02060194
Conditions at: KLAN (LANSING , MI, US) observed 0806 UTC 18 August 2019
Temperature: 20.6°C (69°F)
Dewpoint: 19.4°C (67°F) [RH = 93%]
Pressure (altimeter): 29.90 inches Hg (1012.6 mb)
Winds: calm
Visibility: 8 miles (13 km)
Ceiling: 1600 feet AGL
Clouds: broken clouds at 1600 feet AGL
Weather: no significant weather observed at this time

METAR text: KLAN 180753Z 11003KT 8SM BKN014 21/19 A2991 RMK AO2 SLP121 T02110194
Conditions at: KLAN (LANSING , MI, US) observed 0753 UTC 18 August 2019
Temperature: 21.1°C (70°F)
Dewpoint: 19.4°C (67°F) [RH = 90%]
Pressure (altimeter): 29.91 inches Hg (1013.0 mb)
[Sea-level pressure: 1012.1 mb]
Winds: from the ESE (110 degrees) at 3 MPH (3 knots; 1.5 m/s)
Visibility: 8 miles (13 km)
Ceiling: 1400 feet AGL
Clouds: broken clouds at 1400 feet AGL
Weather: no significant weather observed at this time

METAR text: KLAN 180744Z 00000KT 8SM BKN014 21/19 A2991 RMK AO2 T02060194
Conditions at: KLAN (LANSING , MI, US) observed 0744 UTC 18 August 2019
Temperature: 20.6°C (69°F)
Dewpoint: 19.4°C (67°F) [RH = 93%]
Pressure (altimeter): 29.91 inches Hg (1013.0 mb)
Winds: calm
Visibility: 8 miles (13 km)
Ceiling: 1400 feet AGL
Clouds: broken clouds at 1400 feet AGL
Weather: no significant weather observed at this time

METAR text: KLAN 180653Z 06003KT 7SM CLR 21/19 A2992 RMK AO2 SLP124 T02060194
Conditions at: KLAN (LANSING , MI, US) observed 0653 UTC 18 August 2019
Temperature: 20.6°C (69°F)
Dewpoint: 19.4°C (67°F) [RH = 93%]
Pressure (altimeter): 29.92 inches Hg (1013.3 mb)
[Sea-level pressure: 1012.4 mb]
Winds: from the ENE (60 degrees) at 3 MPH (3 knots; 1.5 m/s)
Visibility: 7 miles (11 km)
Ceiling: at least 12,000 feet AGL
Clouds: sky clear below 12,000 feet AGL
Weather: no significant weather observed at this time

METAR text: KLAN 180553Z 05003KT 10SM CLR 22/20 A2992 RMK AO2 RAB06E15 SLP125 P0000 60000 T02220200 10244 20217 50004
Conditions at: KLAN (LANSING , MI, US) observed 0553 UTC 18 August 2019
Temperature: 22.2°C (72°F)
Dewpoint: 20.0°C (68°F) [RH = 87%]
Pressure (altimeter): 29.92 inches Hg (1013.3 mb)
[Sea-level pressure: 1012.5 mb]
Winds: from the NE (50 degrees) at 3 MPH (3 knots; 1.5 m/s)
Visibility: 10 or more miles (16+ km)
Ceiling: at least 12,000 feet AGL
Clouds: sky clear below 12,000 feet AGL
Weather: no significant weather observed at this time

METAR text: KLAN 180453Z 32004KT 10SM BKN120 23/20 A2992 RMK AO2 LTG DSNT NE SLP127 T02330200 403060178
Conditions at: KLAN (LANSING , MI, US) observed 0453 UTC 18 August 2019
Temperature: 23.3°C (74°F)
Dewpoint: 20.0°C (68°F) [RH = 82%]
Pressure (altimeter): 29.92 inches Hg (1013.3 mb)
[Sea-level pressure: 1012.7 mb]
Winds: from the NW (320 degrees) at 5 MPH (4 knots; 2.1 m/s)
Visibility: 10 or more miles (16+ km)
Ceiling: 12000 feet AGL
Clouds: broken clouds at 12000 feet AGL
Weather: no significant weather observed at this time

METAR text: KLAN 180420Z 23007KT 10SM FEW055 BKN110 23/20 A2992 RMK AO2 LTG DSNT N AND NE T02330200
Conditions at: KLAN (LANSING , MI, US) observed 0420 UTC 18 August 2019
Temperature: 23.3°C (74°F)
Dewpoint: 20.0°C (68°F) [RH = 82%]
Pressure (altimeter): 29.92 inches Hg (1013.3 mb)
Winds: from the SW (230 degrees) at 8 MPH (7 knots; 3.6 m/s)
Visibility: 10 or more miles (16+ km)
Ceiling: 11000 feet AGL
Clouds: few clouds at 5500 feet AGL
broken clouds at 11000 feet AGL
Weather: no significant weather observed at this time

METAR text: KLAN 180353Z 23008KT 10SM VCTS CLR 24/20 A2992 RMK AO2 LTG DSNT NW-NE SLP124 T02390200
Conditions at: KLAN (LANSING , MI, US) observed 0353 UTC 18 August 2019
Temperature: 23.9°C (75°F)
Dewpoint: 20.0°C (68°F) [RH = 79%]
Pressure (altimeter): 29.92 inches Hg (1013.3 mb)
[Sea-level pressure: 1012.4 mb]
Winds: from the SW (230 degrees) at 9 MPH (8 knots; 4.1 m/s)
Visibility: 10 or more miles (16+ km)
Ceiling: at least 12,000 feet AGL
Clouds: sky clear below 12,000 feet AGL
Weather: VCTS  (thunderstorm in vicinity)

METAR text: KLAN 180345Z 22008KT 10SM VCTS FEW029 24/20 A2991 RMK AO2 LTG DSNT N AND NW T02390200
Conditions at: KLAN (LANSING , MI, US) observed 0345 UTC 18 August 2019
Temperature: 23.9°C (75°F)
Dewpoint: 20.0°C (68°F) [RH = 79%]
Pressure (altimeter): 29.91 inches Hg (1013.0 mb)
Winds: from the SW (220 degrees) at 9 MPH (8 knots; 4.1 m/s)
Visibility: 10 or more miles (16+ km)
Ceiling: at least 12,000 feet AGL
Clouds: few clouds at 2900 feet AGL
Weather: VCTS  (thunderstorm in vicinity)

METAR text: KLAN 180323Z 21005KT 10SM SCT024 BKN030 BKN037 23/19 A2991 RMK AO2 LTG DSNT NW T02330194
Conditions at: KLAN (LANSING , MI, US) observed 0323 UTC 18 August 2019
Temperature: 23.3°C (74°F)
Dewpoint: 19.4°C (67°F) [RH = 79%]
Pressure (altimeter): 29.91 inches Hg (1013.0 mb)
Winds: from the SSW (210 degrees) at 6 MPH (5 knots; 2.6 m/s)
Visibility: 10 or more miles (16+ km)
Ceiling: 3000 feet AGL
Clouds: scattered clouds at 2400 feet AGL
broken clouds at 3000 feet AGL
broken clouds at 3700 feet AGL
Weather: no significant weather observed at this time

METAR text: KLAN 180253Z 14003KT 10SM BKN024 22/19 A2990 RMK AO2 LTG DSNT W AND NW SLP121 T02170194 50001
Conditions at: KLAN (LANSING , MI, US) observed 0253 UTC 18 August 2019
Temperature: 21.7°C (71°F)
Dewpoint: 19.4°C (67°F) [RH = 87%]
Pressure (altimeter): 29.90 inches Hg (1012.6 mb)
[Sea-level pressure: 1012.1 mb]
Winds: from the SE (140 degrees) at 3 MPH (3 knots; 1.5 m/s)
Visibility: 10 or more miles (16+ km)
Ceiling: 2400 feet AGL
Clouds: broken clouds at 2400 feet AGL
Weather: no significant weather observed at this time

METAR text: KLAN 180244Z 00000KT 10SM BKN024 22/19 A2991 RMK AO2 LTG DSNT W T02170194
Conditions at: KLAN (LANSING , MI, US) observed 0244 UTC 18 August 2019
Temperature: 21.7°C (71°F)
Dewpoint: 19.4°C (67°F) [RH = 87%]
Pressure (altimeter): 29.91 inches Hg (1013.0 mb)
Winds: calm
Visibility: 10 or more miles (16+ km)
Ceiling: 2400 feet AGL
Clouds: broken clouds at 2400 feet AGL
Weather: no significant weather observed at this time

METAR text: KLAN 180153Z 00000KT 10SM OVC042 22/19 A2991 RMK AO2 LTG DSNT SE SLP124 T02220189
Conditions at: KLAN (LANSING , MI, US) observed 0153 UTC 18 August 2019
Temperature: 22.2°C (72°F)
Dewpoint: 18.9°C (66°F) [RH = 82%]
Pressure (altimeter): 29.91 inches Hg (1013.0 mb)
[Sea-level pressure: 1012.4 mb]
Winds: calm
Visibility: 10 or more miles (16+ km)
Ceiling: 4200 feet AGL
Clouds: overcast cloud deck at 4200 feet AGL
Weather: no significant weather observed at this time

METAR text: KLAN 180053Z 08003KT 10SM FEW042 22/18 A2990 RMK AO2 SLP120 T02170183
Conditions at: KLAN (LANSING , MI, US) observed 0053 UTC 18 August 2019
Temperature: 21.7°C (71°F)
Dewpoint: 18.3°C (65°F) [RH = 81%]
Pressure (altimeter): 29.90 inches Hg (1012.6 mb)
[Sea-level pressure: 1012.0 mb]
Winds: from the E (80 degrees) at 3 MPH (3 knots; 1.5 m/s)
Visibility: 10 or more miles (16+ km)
Ceiling: at least 12,000 feet AGL
Clouds: few clouds at 4200 feet AGL
Weather: no significant weather observed at this time

METAR text: KLAN 172353Z 07006KT 10SM OVC039 24/18 A2990 RMK AO2 WSHFT 2334 SLP121 T02390178 10306 20239 53002
Conditions at: KLAN (LANSING , MI, US) observed 2353 UTC 17 August 2019
Temperature: 23.9°C (75°F)
Dewpoint: 17.8°C (64°F) [RH = 69%]
Pressure (altimeter): 29.90 inches Hg (1012.6 mb)
[Sea-level pressure: 1012.1 mb]
Winds: from the ENE (70 degrees) at 7 MPH (6 knots; 3.1 m/s)
Visibility: 10 or more miles (16+ km)
Ceiling: 3900 feet AGL
Clouds: overcast cloud deck at 3900 feet AGL
Weather: no significant weather observed at this time

METAR text: KLAN 172253Z 24007KT 10SM SCT060 BKN120 28/16 A2990 RMK AO2 SLP119 T02780156
Conditions at: KLAN (LANSING , MI, US) observed 2253 UTC 17 August 2019
Temperature: 27.8°C (82°F)
Dewpoint: 15.6°C (60°F) [RH = 47%]
Pressure (altimeter): 29.90 inches Hg (1012.6 mb)
[Sea-level pressure: 1011.9 mb]
Winds: from the WSW (240 degrees) at 8 MPH (7 knots; 3.6 m/s)
Visibility: 10 or more miles (16+ km)
Ceiling: 12000 feet AGL
Clouds: scattered clouds at 6000 feet AGL
broken clouds at 12000 feet AGL
Weather: no significant weather observed at this time

METAR text: KLAN 172153Z 30004KT 10SM CLR 28/13 A2988 RMK AO2 SLP112 T02830133
Conditions at: KLAN (LANSING , MI, US) observed 2153 UTC 17 August 2019
Temperature: 28.3°C (83°F)
Dewpoint: 13.3°C (56°F) [RH = 40%]
Pressure (altimeter): 29.88 inches Hg (1011.9 mb)
[Sea-level pressure: 1011.2 mb]
Winds: from the WNW (300 degrees) at 5 MPH (4 knots; 2.1 m/s)
Visibility: 10 or more miles (16+ km)
Ceiling: at least 12,000 feet AGL
Clouds: sky clear below 12,000 feet AGL
Weather: no significant weather observed at this time

METAR text: KLAN 172053Z 27007KT 10SM CLR 30/11 A2989 RMK AO2 SLP117 T03000111 58016
Conditions at: KLAN (LANSING , MI, US) observed 2053 UTC 17 August 2019
Temperature: 30.0°C (86°F)
Dewpoint: 11.1°C (52°F) [RH = 31%]
Pressure (altimeter): 29.89 inches Hg (1012.3 mb)
[Sea-level pressure: 1011.7 mb]
Winds: from the W (270 degrees) at 8 MPH (7 knots; 3.6 m/s)
Visibility: 10 or more miles (16+ km)
Ceiling: at least 12,000 feet AGL
Clouds: sky clear below 12,000 feet AGL
Weather: no significant weather observed at this time

METAR text: KLAN 171953Z 26007KT 230V310 10SM FEW065 29/13 A2992 RMK AO2 SLP125 T02940133
Conditions at: KLAN (LANSING , MI, US) observed 1953 UTC 17 August 2019
Temperature: 29.4°C (85°F)
Dewpoint: 13.3°C (56°F) [RH = 37%]
Pressure (altimeter): 29.92 inches Hg (1013.3 mb)
[Sea-level pressure: 1012.5 mb]
Winds: from the W (260 degrees) at 8 MPH (7 knots; 3.6 m/s)
Visibility: 10 or more miles (16+ km)
Ceiling: at least 12,000 feet AGL
Clouds: few clouds at 6500 feet AGL
Weather: no significant weather observed at this time

METAR text: KLAN 171853Z 27009KT 10SM CLR 29/14 A2993 RMK AO2 SLP130 T02940139
Conditions at: KLAN (LANSING , MI, US) observed 1853 UTC 17 August 2019
Temperature: 29.4°C (85°F)
Dewpoint: 13.9°C (57°F) [RH = 39%]
Pressure (altimeter): 29.93 inches Hg (1013.6 mb)
[Sea-level pressure: 1013.0 mb]
Winds: from the W (270 degrees) at 10 MPH (9 knots; 4.6 m/s)
Visibility: 10 or more miles (16+ km)
Ceiling: at least 12,000 feet AGL
Clouds: sky clear below 12,000 feet AGL
Weather: no significant weather observed at this time

METAR text: KLAN 171753Z 27008KT 220V300 10SM FEW045 28/14 A2994 RMK AO2 SLP133 T02830144 10283 20194 58002
Conditions at: KLAN (LANSING , MI, US) observed 1753 UTC 17 August 2019
Temperature: 28.3°C (83°F)
Dewpoint: 14.4°C (58°F) [RH = 43%]
Pressure (altimeter): 29.94 inches Hg (1014.0 mb)
[Sea-level pressure: 1013.3 mb]
Winds: from the W (270 degrees) at 9 MPH (8 knots; 4.1 m/s)
Visibility: 10 or more miles (16+ km)
Ceiling: at least 12,000 feet AGL
Clouds: few clouds at 4500 feet AGL
Weather: no significant weather observed at this time

METAR text: KLAN 171653Z 27012G18KT 10SM CLR 28/14 A2995 RMK AO2 SLP135 T02780144
Conditions at: KLAN (LANSING , MI, US) observed 1653 UTC 17 August 2019
Temperature: 27.8°C (82°F)
Dewpoint: 14.4°C (58°F) [RH = 44%]
Pressure (altimeter): 29.95 inches Hg (1014.3 mb)
[Sea-level pressure: 1013.5 mb]
Winds: from the W (270 degrees) at 14 MPH (12 knots; 6.2 m/s)
gusting to 21 MPH (18 knots; 9.3 m/s)
Visibility: 10 or more miles (16+ km)
Ceiling: at least 12,000 feet AGL
Clouds: sky clear below 12,000 feet AGL
Weather: no significant weather observed at this time

METAR text: KLAN 171553Z 29011KT 10SM CLR 26/15 A2995 RMK AO2 SLP137 T02610150
Conditions at: KLAN (LANSING , MI, US) observed 1553 UTC 17 August 2019
Temperature: 26.1°C (79°F)
Dewpoint: 15.0°C (59°F) [RH = 50%]
Pressure (altimeter): 29.95 inches Hg (1014.3 mb)
[Sea-level pressure: 1013.7 mb]
Winds: from the WNW (290 degrees) at 13 MPH (11 knots; 5.7 m/s)
Visibility: 10 or more miles (16+ km)
Ceiling: at least 12,000 feet AGL
Clouds: sky clear below 12,000 feet AGL
Weather: no significant weather observed at this time

METAR text: KLAN 171453Z 28009KT 10SM CLR 25/16 A2995 RMK AO2 SLP137 T02500156 51008
Conditions at: KLAN (LANSING , MI, US) observed 1453 UTC 17 August 2019
Temperature: 25.0°C (77°F)
Dewpoint: 15.6°C (60°F) [RH = 56%]
Pressure (altimeter): 29.95 inches Hg (1014.3 mb)
[Sea-level pressure: 1013.7 mb]
Winds: from the W (280 degrees) at 10 MPH (9 knots; 4.6 m/s)
Visibility: 10 or more miles (16+ km)
Ceiling: at least 12,000 feet AGL
Clouds: sky clear below 12,000 feet AGL
Weather: no significant weather observed at this time

METAR text: KLAN 171353Z 26008KT 10SM CLR 24/16 A2994 RMK AO2 SLP134 T02440161
Conditions at: KLAN (LANSING , MI, US) observed 1353 UTC 17 August 2019
Temperature: 24.4°C (76°F)
Dewpoint: 16.1°C (61°F) [RH = 60%]
Pressure (altimeter): 29.94 inches Hg (1014.0 mb)
[Sea-level pressure: 1013.4 mb]
Winds: from the W (260 degrees) at 9 MPH (8 knots; 4.1 m/s)
Visibility: 10 or more miles (16+ km)
Ceiling: at least 12,000 feet AGL
Clouds: sky clear below 12,000 feet AGL
Weather: no significant weather observed at this time

Forecast for: KLAN (LANSING , MI, US)
Text: KLAN 182344Z 1900/1924 30006KT P6SM SCT035 BKN250
Forecast period: 0000 to 0900 UTC 19 August 2019
Forecast type: FROM: standard forecast or significant change
Winds: from the WNW (300 degrees) at 7 MPH (6 knots; 3.1 m/s)
Visibility: 6 or more miles 10+ km)
Ceiling: 25000 feet AGL
Clouds: scattered clouds at 3500 feet AGL
broken clouds at 25000 feet AGL
Weather: no significant weather forecast for this period
Text: FM190900 28003KT 4SM BR BKN025
Forecast period: 0900 to 1400 UTC 19 August 2019
Forecast type: FROM: standard forecast or significant change
Winds: from the W (280 degrees) at 3 MPH (3 knots; 1.5 m/s)
Visibility: 4 miles (6 km)
Ceiling: 2500 feet AGL
Clouds: broken clouds at 2500 feet AGL
Weather: BR  (mist)
Text: FM191400 24004KT P6SM BKN035
Forecast period: 1400 UTC 19 August 2019 to 0000 UTC 20 August 2019
Forecast type: FROM: standard forecast or significant change
Winds: from the WSW (240 degrees) at 5 MPH (4 knots; 2.1 m/s)
Visibility: 6 or more miles 10+ km)
Ceiling: 3500 feet AGL
Clouds: broken clouds at 3500 feet AGL
Weather: no significant weather forecast for this period